createdAt,value
2023-09-02T00:04:13.310Z,98623.41
2023-09-02T00:09:16.610Z,98629.94
2023-09-02T00:14:18.451Z,98624.34
2023-09-02T00:19:20.136Z,98635.28
2023-09-02T00:24:21.849Z,98626.84
2023-09-02T00:29:23.502Z,98628.50
2023-09-02T00:34:25.193Z,98630.81
2023-09-02T00:39:27.099Z,98621.75
2023-09-02T00:44:28.920Z,98621.84
2023-09-02T00:49:33.290Z,98620.00
2023-09-02T00:54:35.084Z,98618.53
2023-09-02T00:59:36.909Z,98609.66
2023-09-02T01:04:38.631Z,98608.19
2023-09-02T01:09:40.441Z,98608.59
2023-09-02T01:14:42.298Z,98614.78
2023-09-02T01:19:45.947Z,98608.25
2023-09-02T01:25:11.504Z,98604.09
2023-09-02T01:30:16.319Z,98610.94
2023-09-02T01:35:21.020Z,98622.16
2023-09-02T01:40:27.708Z,98618.16
2023-09-02T01:45:33.115Z,98615.91
2023-09-02T01:50:35.651Z,98616.53
2023-09-02T01:55:37.677Z,98628.47
2023-09-02T02:00:42.549Z,98628.09
2023-09-02T02:05:52.641Z,98628.56
2023-09-02T02:10:57.275Z,98628.78
2023-09-02T02:15:59.014Z,98635.75
2023-09-02T02:21:03.787Z,98629.41
2023-09-02T02:26:07.800Z,98640.03
2023-09-02T02:31:10.170Z,98630.91
2023-09-02T02:36:11.856Z,98632.31
2023-09-02T02:41:13.559Z,98633.59
2023-09-02T02:46:15.306Z,98632.22
2023-09-02T02:51:17.040Z,98637.41
2023-09-02T02:56:18.890Z,98638.38
2023-09-02T03:01:20.660Z,98641.13
2023-09-02T03:06:22.551Z,98644.13
2023-09-02T03:11:24.280Z,98643.56
2023-09-02T03:16:26.008Z,98642.72
2023-09-02T03:21:27.660Z,98646.31
2023-09-02T03:26:29.411Z,98646.19
2023-09-02T03:31:31.214Z,98649.13
2023-09-02T03:36:32.958Z,98660.53
2023-09-02T03:41:38.669Z,98659.56
2023-09-02T03:46:40.474Z,98664.13
2023-09-02T03:51:43.928Z,98670.81
2023-09-02T03:56:45.619Z,98674.16
2023-09-02T04:01:47.405Z,98676.34
2023-09-02T04:06:49.126Z,98683.91
2023-09-02T04:11:50.840Z,98692.09
2023-09-02T04:16:55.612Z,98695.47
2023-09-02T04:21:57.324Z,98697.00
2023-09-02T04:27:00.614Z,98704.69
2023-09-02T04:32:02.430Z,98702.88
2023-09-02T04:37:04.338Z,98712.75
2023-09-02T04:42:06.403Z,98714.75
2023-09-02T04:47:11.539Z,98723.75
2023-09-02T04:52:13.227Z,98729.06
2023-09-02T04:57:14.881Z,98736.75
2023-09-02T05:02:16.580Z,98740.47
2023-09-02T05:07:18.231Z,98750.72
2023-09-02T05:12:19.978Z,98755.91
2023-09-02T05:17:21.695Z,98755.19
2023-09-02T05:22:23.733Z,98763.13
2023-09-02T05:27:25.600Z,98765.00
2023-09-02T05:32:27.427Z,98770.97
2023-09-02T05:37:29.257Z,98773.56
2023-09-02T05:42:31.024Z,98761.78
2023-09-02T05:47:32.986Z,98773.69
2023-09-02T05:52:34.795Z,98761.53
2023-09-02T05:57:36.561Z,98764.44
2023-09-02T06:02:38.363Z,98776.88
2023-09-02T06:07:43.012Z,98776.88
2023-09-02T06:12:44.753Z,98786.91
2023-09-02T06:17:46.654Z,98794.75
2023-09-02T06:22:48.378Z,98783.72
2023-09-02T06:27:50.178Z,98791.75
2023-09-02T06:32:52.405Z,98790.53
2023-09-02T06:37:54.221Z,98792.75
2023-09-02T06:42:55.994Z,98795.59
2023-09-02T06:47:57.702Z,98796.03
2023-09-02T06:52:59.455Z,98797.66
2023-09-02T06:58:01.143Z,98802.84
2023-09-02T07:03:03.211Z,98803.94
2023-09-02T07:08:05.203Z,98804.34
2023-09-02T07:13:06.949Z,98815.38
2023-09-02T07:18:08.802Z,98815.06
2023-09-02T07:23:10.503Z,98817.19
2023-09-02T07:28:12.295Z,98812.56
2023-09-02T07:33:14.127Z,98824.38
2023-09-02T07:38:16.009Z,98829.03
2023-09-02T07:43:18.020Z,98830.75
2023-09-02T07:48:19.871Z,98833.50
2023-09-02T07:53:21.854Z,98828.16
2023-09-02T07:58:23.610Z,98823.00
2023-09-02T08:03:26.177Z,98821.31
2023-09-02T08:08:28.184Z,98825.63
2023-09-02T08:13:29.924Z,98833.97
2023-09-02T08:18:31.670Z,98836.91
2023-09-02T08:23:33.431Z,98833.50
2023-09-02T08:28:35.163Z,98824.50
2023-09-02T08:33:37.063Z,98833.31
2023-09-02T08:38:38.806Z,98839.38
2023-09-02T08:43:41.766Z,98842.41
2023-09-02T08:48:45.002Z,98835.50
2023-09-02T08:53:47.563Z,98849.25
2023-09-02T08:58:50.330Z,98836.69
2023-09-02T09:03:56.372Z,98840.09
2023-09-02T09:08:58.619Z,98847.53
2023-09-02T09:14:03.180Z,98840.56
2023-09-02T09:19:05.019Z,98846.31
2023-09-02T09:24:12.359Z,98842.75
2023-09-02T09:29:16.601Z,98833.84
2023-09-02T09:34:18.293Z,98830.84
2023-09-02T09:39:19.966Z,98823.81
2023-09-02T09:44:21.769Z,98825.75
2023-09-02T09:49:27.658Z,98818.63
2023-09-02T09:54:35.433Z,98826.75
2023-09-02T09:59:37.757Z,98827.47
2023-09-02T10:04:39.494Z,98829.31
2023-09-02T10:09:45.354Z,98829.13
2023-09-02T10:14:49.002Z,98823.81
2023-09-02T10:19:50.815Z,98827.28
2023-09-02T10:25:20.489Z,98822.06
2023-09-02T10:30:33.697Z,98819.09
2023-09-02T10:35:42.433Z,98825.56
2023-09-02T10:40:47.905Z,98823.09
2023-09-02T10:45:50.181Z,98822.66
2023-09-02T10:50:52.500Z,98828.34
2023-09-02T10:56:02.085Z,98822.56
2023-09-02T11:01:03.870Z,98828.44
2023-09-02T11:06:07.502Z,98821.28
2023-09-02T11:11:09.295Z,98826.66
2023-09-02T11:16:17.071Z,98819.13
2023-09-02T11:21:41.589Z,98824.41
2023-09-02T11:26:56.720Z,98819.78
2023-09-02T11:32:04.660Z,98817.34
2023-09-02T11:37:07.041Z,98811.78
2023-09-02T11:42:10.310Z,98814.06
2023-09-02T11:47:15.472Z,98813.09
2023-09-02T11:52:22.287Z,98811.81
2023-09-02T11:57:24.064Z,98809.22
2023-09-02T12:02:26.604Z,98813.41
2023-09-02T12:07:28.667Z,98818.09
2023-09-02T12:12:30.684Z,98811.03
2023-09-02T12:17:32.904Z,98805.75
2023-09-02T12:22:37.246Z,98805.28
2023-09-02T12:27:41.772Z,98807.59
2023-09-02T12:32:45.603Z,98804.59
2023-09-02T12:37:59.962Z,98802.47
2023-09-02T12:43:02.877Z,98805.56
2023-09-02T12:48:05.345Z,98805.69
2023-09-02T12:53:07.113Z,98800.97
2023-09-02T12:58:08.976Z,98796.25
2023-09-02T13:03:11.018Z,98789.59
2023-09-02T13:08:14.133Z,98786.88
2023-09-02T13:13:17.811Z,98784.56
2023-09-02T13:18:19.788Z,98791.03
2023-09-02T13:23:22.189Z,98791.06
2023-09-02T13:28:29.323Z,98784.97
2023-09-02T13:33:31.704Z,98790.97
2023-09-02T13:38:38.390Z,98781.38
2023-09-02T13:43:41.652Z,98774.56
2023-09-02T13:48:45.390Z,98775.16
2023-09-02T13:53:47.725Z,98768.84
2023-09-02T13:58:52.600Z,98761.84
2023-09-02T14:03:55.258Z,98763.25
2023-09-02T14:09:01.781Z,98769.09
2023-09-02T14:14:03.643Z,98764.59
2023-09-02T14:19:06.568Z,98752.78
2023-09-02T14:24:08.687Z,98753.06
2023-09-02T14:29:11.200Z,98752.88
2023-09-02T14:34:13.312Z,98760.63
2023-09-02T14:39:16.225Z,98750.94
2023-09-02T14:44:18.452Z,98749.03
2023-09-02T14:49:20.709Z,98747.75
2023-09-02T14:54:22.795Z,98743.50
2023-09-02T14:59:25.584Z,98740.41
2023-09-02T15:04:27.574Z,98739.59
2023-09-02T15:09:32.166Z,98741.34
2023-09-02T15:14:35.701Z,98748.56
2023-09-02T15:19:39.352Z,98748.06
2023-09-02T15:24:41.844Z,98764.06
2023-09-02T15:29:43.870Z,98750.47
2023-09-02T15:34:49.071Z,98753.88
2023-09-02T15:39:55.901Z,98756.47
2023-09-02T15:44:57.997Z,98762.84
2023-09-02T15:50:00.227Z,98762.19
2023-09-02T15:55:02.007Z,98760.50
2023-09-02T16:00:04.332Z,98760.56
2023-09-02T16:05:06.873Z,98772.00
2023-09-02T16:10:08.905Z,98778.19
2023-09-02T16:15:12.661Z,98781.16
2023-09-02T16:20:15.171Z,98780.94
2023-09-02T16:25:17.223Z,98779.72
2023-09-02T16:30:19.878Z,98781.94
2023-09-02T16:35:28.556Z,98777.69
2023-09-02T16:40:30.971Z,98780.16
2023-09-02T16:45:33.045Z,98792.53
2023-09-02T16:50:35.194Z,98803.25
2023-09-02T16:55:37.084Z,98799.28
2023-09-02T17:00:39.277Z,98803.28
2023-09-02T17:05:43.316Z,98793.91
2023-09-02T17:10:45.753Z,98797.25
2023-09-02T17:15:47.743Z,98800.81
2023-09-02T17:20:50.798Z,98803.72
2023-09-02T17:25:52.734Z,98811.16
2023-09-02T17:31:04.219Z,98821.78
2023-09-02T17:36:06.463Z,98823.41
2023-09-02T17:41:08.865Z,98825.47
2023-09-02T17:46:10.805Z,98821.53
2023-09-02T17:51:13.313Z,98838.31
2023-09-02T17:56:15.035Z,98833.00
2023-09-02T18:01:17.270Z,98840.25
2023-09-02T18:06:19.517Z,98841.81
2023-09-02T18:11:21.890Z,98847.53
2023-09-02T18:16:26.113Z,98857.69
2023-09-02T18:21:28.058Z,98852.91
2023-09-02T18:26:30.208Z,98861.13
2023-09-02T18:31:33.197Z,98873.19
2023-09-02T18:36:36.788Z,98878.63
2023-09-02T18:41:42.293Z,98894.75
2023-09-02T18:46:44.417Z,98894.97
2023-09-02T18:51:48.639Z,98898.09
2023-09-02T18:56:50.889Z,98901.78
2023-09-02T19:01:52.945Z,98901.56
2023-09-02T19:06:55.245Z,98901.97
2023-09-02T19:11:57.495Z,98894.00
2023-09-02T19:16:59.674Z,98905.22
2023-09-02T19:22:01.430Z,98906.34
2023-09-02T19:27:05.186Z,98919.03
2023-09-02T19:32:07.419Z,98926.50
2023-09-02T19:37:09.703Z,98921.78
2023-09-02T19:42:11.733Z,98918.88
2023-09-02T19:47:13.774Z,98919.00
2023-09-02T19:52:15.598Z,98922.69
2023-09-02T19:57:18.085Z,98930.13
2023-09-02T20:02:20.225Z,98933.03
2023-09-02T20:07:22.694Z,98927.44
2023-09-02T20:12:27.853Z,98928.63
2023-09-02T20:17:31.911Z,98930.00
2023-09-02T20:22:34.520Z,98928.03
2023-09-02T20:27:36.981Z,98931.63
2023-09-02T20:32:39.008Z,98925.06
2023-09-02T20:37:41.060Z,98927.78
2023-09-02T20:42:43.196Z,98937.59
2023-09-02T20:47:45.167Z,98935.59
2023-09-02T20:52:47.526Z,98941.00
2023-09-02T20:57:49.568Z,98937.28
2023-09-02T21:02:55.609Z,98931.84
2023-09-02T21:07:57.488Z,98939.50
2023-09-02T21:12:59.234Z,98940.50
2023-09-02T21:18:00.926Z,98946.22
2023-09-02T21:23:02.644Z,98947.81
2023-09-02T21:28:04.664Z,98955.59
2023-09-02T21:33:06.383Z,98956.94
2023-09-02T21:38:08.287Z,98956.63
2023-09-02T21:43:10.083Z,98963.88
2023-09-02T21:48:11.897Z,98959.88
2023-09-02T21:53:13.662Z,98961.53
2023-09-02T21:58:15.343Z,98948.53
2023-09-02T22:03:17.189Z,98951.38
2023-09-02T22:08:18.996Z,98947.63
2023-09-02T22:13:20.954Z,98948.53
2023-09-02T22:18:24.804Z,98958.13
2023-09-02T22:23:29.164Z,98950.41
2023-09-02T22:28:32.338Z,98951.63
2023-09-02T22:33:35.538Z,98955.44
2023-09-02T22:38:55.574Z,98953.28
2023-09-02T22:43:58.696Z,98945.09
2023-09-02T22:49:00.428Z,98943.28
2023-09-02T22:54:02.078Z,98944.72
2023-09-02T22:59:03.869Z,98943.16
2023-09-02T23:04:05.813Z,98936.44
2023-09-02T23:09:07.521Z,98934.78
2023-09-02T23:14:09.200Z,98934.91
2023-09-02T23:19:10.886Z,98926.81
2023-09-02T23:24:12.552Z,98919.81
2023-09-02T23:29:14.173Z,98924.28
2023-09-02T23:34:16.389Z,98921.50
2023-09-02T23:39:18.123Z,98923.91
2023-09-02T23:44:19.876Z,98926.78
2023-09-02T23:49:21.546Z,98919.06
2023-09-02T23:54:26.520Z,98911.38
2023-09-02T23:59:28.265Z,98902.50
